sensor_id;sensor_type;location;lat;lon;timestamp;pressure;altitude;pressure_sealevel;temperature;humidity
37690;BME280;23527;48.150;11.610;2022-07-09T00:01:11;96835.59;;;23.98;31.30
37690;BME280;23527;48.150;11.610;2022-07-09T00:04:12;96833.97;;;23.97;31.62
37690;BME280;23527;48.150;11.610;2022-07-09T00:07:12;96828.91;;;23.96;31.89
37690;BME280;23527;48.150;11.610;2022-07-09T00:10:12;96829.72;;;23.96;32.05
37690;BME280;23527;48.150;11.610;2022-07-09T00:13:12;96826.69;;;23.93;31.97
37690;BME280;23527;48.150;11.610;2022-07-09T00:16:13;96822.47;;;23.85;32.03
37690;BME280;23527;48.150;11.610;2022-07-09T00:19:13;96822.34;;;23.80;31.99
37690;BME280;23527;48.150;11.610;2022-07-09T00:22:14;96816.03;;;23.74;32.21
37690;BME280;23527;48.150;11.610;2022-07-09T00:25:14;96819.75;;;23.73;32.71
37690;BME280;23527;48.150;11.610;2022-07-09T00:28:14;96809.69;;;23.75;32.73
37690;BME280;23527;48.150;11.610;2022-07-09T00:31:15;96808.66;;;23.76;32.81
37690;BME280;23527;48.150;11.610;2022-07-09T00:34:15;96806.66;;;23.72;32.92
37690;BME280;23527;48.150;11.610;2022-07-09T00:37:15;96798.31;;;23.68;33.18
37690;BME280;23527;48.150;11.610;2022-07-09T00:40:15;96801.81;;;23.69;32.80
37690;BME280;23527;48.150;11.610;2022-07-09T00:43:16;96803.13;;;23.60;33.16
37690;BME280;23527;48.150;11.610;2022-07-09T00:46:17;96790.31;;;23.50;33.15
37690;BME280;23527;48.150;11.610;2022-07-09T00:49:17;96800.56;;;23.46;33.26
37690;BME280;23527;48.150;11.610;2022-07-09T00:52:17;96798.94;;;23.45;33.53
37690;BME280;23527;48.150;11.610;2022-07-09T00:55:18;96794.09;;;23.42;33.39
37690;BME280;23527;48.150;11.610;2022-07-09T00:58:19;96790.25;;;23.38;33.59
37690;BME280;23527;48.150;11.610;2022-07-09T01:01:19;96801.09;;;23.37;33.85
37690;BME280;23527;48.150;11.610;2022-07-09T01:04:19;96793.78;;;23.32;33.70
37690;BME280;23527;48.150;11.610;2022-07-09T01:07:19;96792.81;;;23.27;33.89
37690;BME280;23527;48.150;11.610;2022-07-09T01:10:20;96786.75;;;23.20;33.98
37690;BME280;23527;48.150;11.610;2022-07-09T01:13:20;96787.44;;;23.15;34.20
37690;BME280;23527;48.150;11.610;2022-07-09T01:16:20;96788.91;;;23.11;34.48
37690;BME280;23527;48.150;11.610;2022-07-09T01:19:21;96780.53;;;23.07;34.41
37690;BME280;23527;48.150;11.610;2022-07-09T01:22:21;96777.50;;;23.04;34.25
37690;BME280;23527;48.150;11.610;2022-07-09T01:25:24;96767.91;;;23.03;34.54
37690;BME280;23527;48.150;11.610;2022-07-09T01:28:27;96773.81;;;23.05;34.78
37690;BME280;23527;48.150;11.610;2022-07-09T01:31:28;96768.94;;;23.02;34.75
37690;BME280;23527;48.150;11.610;2022-07-09T01:34:28;96773.28;;;22.96;35.04
37690;BME280;23527;48.150;11.610;2022-07-09T01:37:28;96771.22;;;22.98;34.87
37690;BME280;23527;48.150;11.610;2022-07-09T01:40:29;96772.03;;;22.99;35.13
37690;BME280;23527;48.150;11.610;2022-07-09T01:43:29;96763.03;;;23.00;35.25
37690;BME280;23527;48.150;11.610;2022-07-09T01:46:31;96758.03;;;23.10;35.12
37690;BME280;23527;48.150;11.610;2022-07-09T01:49:31;96762.81;;;23.20;35.12
37690;BME280;23527;48.150;11.610;2022-07-09T01:52:31;96756.63;;;23.26;35.29
37690;BME280;23527;48.150;11.610;2022-07-09T01:55:32;96753.75;;;23.27;34.61
37690;BME280;23527;48.150;11.610;2022-07-09T01:58:32;96751.31;;;23.26;34.73
37690;BME280;23527;48.150;11.610;2022-07-09T02:01:32;96748.78;;;23.31;35.07
37690;BME280;23527;48.150;11.610;2022-07-09T02:04:32;96741.53;;;23.20;34.51
37690;BME280;23527;48.150;11.610;2022-07-09T02:07:33;96742.34;;;23.20;34.82
37690;BME280;23527;48.150;11.610;2022-07-09T02:10:33;96748.22;;;23.29;34.68
37690;BME280;23527;48.150;11.610;2022-07-09T02:13:33;96742.13;;;23.22;34.66
37690;BME280;23527;48.150;11.610;2022-07-09T02:16:35;96741.50;;;23.26;34.73
37690;BME280;23527;48.150;11.610;2022-07-09T02:19:36;96735.94;;;23.28;35.08
37690;BME280;23527;48.150;11.610;2022-07-09T02:22:36;96737.41;;;23.24;34.26
37690;BME280;23527;48.150;11.610;2022-07-09T02:25:36;96740.13;;;23.17;34.82
37690;BME280;23527;48.150;11.610;2022-07-09T02:28:36;96737.47;;;23.17;34.42
37690;BME280;23527;48.150;11.610;2022-07-09T02:31:36;96733.56;;;23.20;35.07
37690;BME280;23527;48.150;11.610;2022-07-09T02:34:37;96729.59;;;23.29;34.68
37690;BME280;23527;48.150;11.610;2022-07-09T02:37:37;96729.50;;;23.35;35.18
37690;BME280;23527;48.150;11.610;2022-07-09T02:40:38;96718.81;;;23.42;34.88
37690;BME280;23527;48.150;11.610;2022-07-09T02:43:38;96715.09;;;23.43;34.69
37690;BME280;23527;48.150;11.610;2022-07-09T02:46:38;96720.28;;;23.38;34.16
37690;BME280;23527;48.150;11.610;2022-07-09T02:49:38;96717.63;;;23.38;34.05
37690;BME280;23527;48.150;11.610;2022-07-09T02:52:38;96719.63;;;23.42;34.46
37690;BME280;23527;48.150;11.610;2022-07-09T02:55:39;96709.69;;;23.50;34.71
37690;BME280;23527;48.150;11.610;2022-07-09T02:58:39;96709.88;;;23.55;34.93
37690;BME280;23527;48.150;11.610;2022-07-09T03:01:40;96707.81;;;23.57;33.80
37690;BME280;23527;48.150;11.610;2022-07-09T03:04:40;96715.19;;;23.55;34.64
37690;BME280;23527;48.150;11.610;2022-07-09T03:07:41;96717.38;;;23.58;34.39
37690;BME280;23527;48.150;11.610;2022-07-09T03:10:41;96715.78;;;23.57;34.79
37690;BME280;23527;48.150;11.610;2022-07-09T03:13:41;96716.81;;;23.56;34.74
37690;BME280;23527;48.150;11.610;2022-07-09T03:16:42;96721.44;;;23.60;34.99
37690;BME280;23527;48.150;11.610;2022-07-09T03:19:42;96721.66;;;23.59;35.08
37690;BME280;23527;48.150;11.610;2022-07-09T03:22:42;96716.13;;;23.60;34.71
37690;BME280;23527;48.150;11.610;2022-07-09T03:25:42;96720.19;;;23.63;34.52
37690;BME280;23527;48.150;11.610;2022-07-09T03:28:43;96729.22;;;23.62;34.88
37690;BME280;23527;48.150;11.610;2022-07-09T03:31:43;96721.00;;;23.63;34.55
37690;BME280;23527;48.150;11.610;2022-07-09T03:34:44;96725.13;;;23.59;35.04
37690;BME280;23527;48.150;11.610;2022-07-09T03:37:44;96724.31;;;23.59;34.62
37690;BME280;23527;48.150;11.610;2022-07-09T03:40:45;96725.63;;;23.56;34.46
37690;BME280;23527;48.150;11.610;2022-07-09T03:43:45;96720.63;;;23.60;35.05
37690;BME280;23527;48.150;11.610;2022-07-09T03:46:45;96727.13;;;23.64;35.38
37690;BME280;23527;48.150;11.610;2022-07-09T03:49:45;96721.38;;;23.67;35.30
37690;BME280;23527;48.150;11.610;2022-07-09T03:52:46;96729.94;;;23.69;35.09
37690;BME280;23527;48.150;11.610;2022-07-09T03:55:46;96738.38;;;23.66;34.66
37690;BME280;23527;48.150;11.610;2022-07-09T03:58:46;96735.94;;;23.64;34.78
37690;BME280;23527;48.150;11.610;2022-07-09T04:01:47;96738.00;;;23.62;35.30
37690;BME280;23527;48.150;11.610;2022-07-09T04:04:47;96739.41;;;23.65;34.97
37690;BME280;23527;48.150;11.610;2022-07-09T04:07:47;96742.66;;;23.67;35.49
37690;BME280;23527;48.150;11.610;2022-07-09T04:10:47;96742.44;;;23.68;35.10
37690;BME280;23527;48.150;11.610;2022-07-09T04:13:48;96733.75;;;23.73;36.02
37690;BME280;23527;48.150;11.610;2022-07-09T04:16:49;96741.31;;;23.76;35.80
37690;BME280;23527;48.150;11.610;2022-07-09T04:19:49;96742.94;;;23.77;35.06
37690;BME280;23527;48.150;11.610;2022-07-09T04:22:49;96743.38;;;23.74;35.21
37690;BME280;23527;48.150;11.610;2022-07-09T04:25:49;96739.22;;;23.78;35.35
37690;BME280;23527;48.150;11.610;2022-07-09T04:28:50;96740.84;;;23.79;35.05
37690;BME280;23527;48.150;11.610;2022-07-09T04:31:51;96738.56;;;23.83;35.78
37690;BME280;23527;48.150;11.610;2022-07-09T04:34:51;96740.16;;;23.84;36.31
37690;BME280;23527;48.150;11.610;2022-07-09T04:37:51;96751.56;;;23.91;36.39
37690;BME280;23527;48.150;11.610;2022-07-09T04:40:51;96745.56;;;23.95;36.33
37690;BME280;23527;48.150;11.610;2022-07-09T04:43:52;96739.88;;;23.92;36.24
37690;BME280;23527;48.150;11.610;2022-07-09T04:46:52;96744.16;;;23.93;35.67
37690;BME280;23527;48.150;11.610;2022-07-09T04:49:52;96742.91;;;23.95;36.36
37690;BME280;23527;48.150;11.610;2022-07-09T04:52:52;96740.00;;;23.97;36.00
37690;BME280;23527;48.150;11.610;2022-07-09T04:55:53;96738.38;;;23.96;36.42
37690;BME280;23527;48.150;11.610;2022-07-09T04:58:53;96746.94;;;23.98;35.92
37690;BME280;23527;48.150;11.610;2022-07-09T05:01:54;96751.00;;;24.00;36.31
37690;BME280;23527;48.150;11.610;2022-07-09T05:04:54;96745.00;;;24.05;37.01
37690;BME280;23527;48.150;11.610;2022-07-09T05:07:54;96739.69;;;24.05;36.18
37690;BME280;23527;48.150;11.610;2022-07-09T05:10:54;96749.28;;;24.06;36.03
37690;BME280;23527;48.150;11.610;2022-07-09T05:13:54;96743.75;;;24.07;35.81
37690;BME280;23527;48.150;11.610;2022-07-09T05:16:55;96754.72;;;24.11;36.17
37690;BME280;23527;48.150;11.610;2022-07-09T05:19:55;96750.09;;;24.06;35.50
37690;BME280;23527;48.150;11.610;2022-07-09T05:22:55;96757.84;;;23.96;35.92
37690;BME280;23527;48.150;11.610;2022-07-09T05:25:55;96749.03;;;23.96;35.68
37690;BME280;23527;48.150;11.610;2022-07-09T05:28:55;96748.66;;;23.92;36.13
37690;BME280;23527;48.150;11.610;2022-07-09T05:31:56;96752.84;;;24.00;36.04
37690;BME280;23527;48.150;11.610;2022-07-09T05:34:57;96753.22;;;24.03;36.40
37690;BME280;23527;48.150;11.610;2022-07-09T05:37:58;96755.22;;;24.08;36.02
37690;BME280;23527;48.150;11.610;2022-07-09T05:40:58;96755.44;;;24.06;36.01
37690;BME280;23527;48.150;11.610;2022-07-09T05:43:58;96746.63;;;24.06;35.86
37690;BME280;23527;48.150;11.610;2022-07-09T05:46:58;96751.63;;;24.14;36.01
37690;BME280;23527;48.150;11.610;2022-07-09T05:49:58;96750.50;;;24.22;36.49
37690;BME280;23527;48.150;11.610;2022-07-09T05:52:59;96749.38;;;24.29;36.11
37690;BME280;23527;48.150;11.610;2022-07-09T05:55:59;96743.16;;;24.35;36.36
37690;BME280;23527;48.150;11.610;2022-07-09T05:59:00;96743.69;;;24.37;35.49
37690;BME280;23527;48.150;11.610;2022-07-09T06:02:00;96739.91;;;24.45;36.28
37690;BME280;23527;48.150;11.610;2022-07-09T06:05:02;96745.09;;;24.40;35.24
37690;BME280;23527;48.150;11.610;2022-07-09T06:08:03;96743.97;;;24.47;35.92
37690;BME280;23527;48.150;11.610;2022-07-09T06:11:03;96750.81;;;24.55;36.05
37690;BME280;23527;48.150;11.610;2022-07-09T06:14:04;96753.94;;;24.64;35.99
37690;BME280;23527;48.150;11.610;2022-07-09T06:17:04;96750.13;;;24.71;36.34
37690;BME280;23527;48.150;11.610;2022-07-09T06:20:07;96758.25;;;24.76;36.77
37690;BME280;23527;48.150;11.610;2022-07-09T06:23:09;96757.91;;;24.84;35.68
37690;BME280;23527;48.150;11.610;2022-07-09T06:26:09;96752.13;;;24.88;34.72
37690;BME280;23527;48.150;11.610;2022-07-09T06:29:09;96753.25;;;24.92;33.94
37690;BME280;23527;48.150;11.610;2022-07-09T06:32:09;96748.06;;;24.97;35.41
37690;BME280;23527;48.150;11.610;2022-07-09T06:35:10;96754.09;;;25.04;34.20
37690;BME280;23527;48.150;11.610;2022-07-09T06:38:10;96761.03;;;25.05;34.20
37690;BME280;23527;48.150;11.610;2022-07-09T06:41:10;96757.09;;;25.07;33.93
37690;BME280;23527;48.150;11.610;2022-07-09T06:44:10;96748.41;;;25.12;32.51
37690;BME280;23527;48.150;11.610;2022-07-09T06:47:11;96750.13;;;25.18;31.85
37690;BME280;23527;48.150;11.610;2022-07-09T06:50:11;96750.28;;;25.11;33.40
37690;BME280;23527;48.150;11.610;2022-07-09T06:53:11;96760.47;;;25.14;32.84
37690;BME280;23527;48.150;11.610;2022-07-09T06:56:11;96755.47;;;25.18;32.79
37690;BME280;23527;48.150;11.610;2022-07-09T06:59:12;96756.03;;;25.20;33.58
37690;BME280;23527;48.150;11.610;2022-07-09T07:02:12;96749.66;;;25.21;31.96
37690;BME280;23527;48.150;11.610;2022-07-09T07:05:12;96753.59;;;25.18;32.46
37690;BME280;23527;48.150;11.610;2022-07-09T07:08:13;96745.38;;;25.20;32.49
37690;BME280;23527;48.150;11.610;2022-07-09T07:11:13;96751.06;;;25.24;33.00
37690;BME280;23527;48.150;11.610;2022-07-09T07:14:14;96751.19;;;25.29;32.69
37690;BME280;23527;48.150;11.610;2022-07-09T07:17:15;96754.75;;;25.34;34.40
37690;BME280;23527;48.150;11.610;2022-07-09T07:20:15;96751.84;;;25.36;32.60
37690;BME280;23527;48.150;11.610;2022-07-09T07:23:19;96752.09;;;25.34;31.43
37690;BME280;23527;48.150;11.610;2022-07-09T07:26:20;96748.38;;;25.35;31.46
37690;BME280;23527;48.150;11.610;2022-07-09T07:29:20;96754.28;;;25.37;31.53
37690;BME280;23527;48.150;11.610;2022-07-09T07:32:20;96749.53;;;25.39;31.66
37690;BME280;23527;48.150;11.610;2022-07-09T07:35:20;96740.13;;;25.37;31.11
37690;BME280;23527;48.150;11.610;2022-07-09T07:38:21;96738.84;;;25.39;32.04
37690;BME280;23527;48.150;11.610;2022-07-09T07:41:22;96736.03;;;25.46;32.47
37690;BME280;23527;48.150;11.610;2022-07-09T07:44:23;96736.97;;;25.51;31.86
37690;BME280;23527;48.150;11.610;2022-07-09T07:47:24;96731.25;;;25.60;32.33
37690;BME280;23527;48.150;11.610;2022-07-09T07:50:24;96727.66;;;25.66;31.89
37690;BME280;23527;48.150;11.610;2022-07-09T07:53:24;96720.56;;;25.71;31.47
37690;BME280;23527;48.150;11.610;2022-07-09T07:56:25;96725.28;;;25.81;31.83
37690;BME280;23527;48.150;11.610;2022-07-09T07:59:25;96727.47;;;25.84;31.98
37690;BME280;23527;48.150;11.610;2022-07-09T08:02:25;96728.53;;;25.83;31.34
37690;BME280;23527;48.150;11.610;2022-07-09T08:05:25;96733.47;;;25.91;33.07
37690;BME280;23527;48.150;11.610;2022-07-09T08:08:26;96727.16;;;25.97;30.70
37690;BME280;23527;48.150;11.610;2022-07-09T08:11:27;96733.53;;;26.08;31.44
37690;BME280;23527;48.150;11.610;2022-07-09T08:14:27;96729.16;;;26.18;31.35
37690;BME280;23527;48.150;11.610;2022-07-09T08:17:27;96723.53;;;26.32;30.75
37690;BME280;23527;48.150;11.610;2022-07-09T08:20:28;96722.97;;;26.46;30.35
37690;BME280;23527;48.150;11.610;2022-07-09T08:23:28;96720.63;;;26.50;30.63
37690;BME280;23527;48.150;11.610;2022-07-09T08:26:29;96715.44;;;26.60;29.53
37690;BME280;23527;48.150;11.610;2022-07-09T08:29:30;96720.94;;;26.70;29.29
37690;BME280;23527;48.150;11.610;2022-07-09T08:32:30;96716.69;;;26.91;29.37
37690;BME280;23527;48.150;11.610;2022-07-09T08:35:31;96716.56;;;27.19;29.92
37690;BME280;23527;48.150;11.610;2022-07-09T08:38:31;96715.56;;;27.47;28.49
37690;BME280;23527;48.150;11.610;2022-07-09T08:41:31;96700.72;;;27.83;28.41
37690;BME280;23527;48.150;11.610;2022-07-09T08:44:31;96706.66;;;27.85;26.99
37690;BME280;23527;48.150;11.610;2022-07-09T08:47:35;96703.72;;;27.87;26.59
37690;BME280;23527;48.150;11.610;2022-07-09T08:50:35;96689.66;;;28.01;26.41
37690;BME280;23527;48.150;11.610;2022-07-09T08:53:41;96685.88;;;27.97;27.11
37690;BME280;23527;48.150;11.610;2022-07-09T08:56:41;96693.06;;;27.92;27.13
37690;BME280;23527;48.150;11.610;2022-07-09T08:59:41;96684.53;;;27.95;27.13
37690;BME280;23527;48.150;11.610;2022-07-09T09:02:42;96679.56;;;28.09;26.13
37690;BME280;23527;48.150;11.610;2022-07-09T09:05:42;96682.38;;;28.19;24.89
37690;BME280;23527;48.150;11.610;2022-07-09T09:08:43;96677.84;;;28.24;24.78
37690;BME280;23527;48.150;11.610;2022-07-09T09:11:46;96675.28;;;28.40;26.48
37690;BME280;23527;48.150;11.610;2022-07-09T09:14:47;96676.91;;;28.41;25.55
37690;BME280;23527;48.150;11.610;2022-07-09T09:17:48;96661.88;;;28.40;26.62
37690;BME280;23527;48.150;11.610;2022-07-09T09:20:48;96659.25;;;28.50;25.02
37690;BME280;23527;48.150;11.610;2022-07-09T09:23:53;96656.63;;;28.55;24.93
37690;BME280;23527;48.150;11.610;2022-07-09T09:26:57;96657.44;;;28.55;25.22
37690;BME280;23527;48.150;11.610;2022-07-09T09:29:58;96658.84;;;28.63;25.95
37690;BME280;23527;48.150;11.610;2022-07-09T09:33:00;96654.00;;;28.65;25.19
37690;BME280;23527;48.150;11.610;2022-07-09T09:36:00;96651.63;;;28.68;25.60
37690;BME280;23527;48.150;11.610;2022-07-09T09:39:10;96666.78;;;28.85;26.70
37690;BME280;23527;48.150;11.610;2022-07-09T09:42:11;96649.41;;;28.97;25.38
37690;BME280;23527;48.150;11.610;2022-07-09T09:45:14;96651.56;;;29.00;25.31
37690;BME280;23527;48.150;11.610;2022-07-09T09:48:15;96652.38;;;29.06;24.19
37690;BME280;23527;48.150;11.610;2022-07-09T09:51:18;96646.78;;;29.13;24.47
37690;BME280;23527;48.150;11.610;2022-07-09T09:54:20;96643.88;;;29.24;26.86
37690;BME280;23527;48.150;11.610;2022-07-09T09:57:21;96645.25;;;29.37;25.24
37690;BME280;23527;48.150;11.610;2022-07-09T10:00:24;96642.34;;;29.38;24.71
37690;BME280;23527;48.150;11.610;2022-07-09T10:03:25;96637.53;;;29.40;25.03
37690;BME280;23527;48.150;11.610;2022-07-09T10:06:25;96632.69;;;29.42;24.13
37690;BME280;23527;48.150;11.610;2022-07-09T10:09:26;96625.97;;;29.40;24.17
37690;BME280;23527;48.150;11.610;2022-07-09T10:12:27;96630.28;;;29.56;25.97
37690;BME280;23527;48.150;11.610;2022-07-09T10:15:28;96631.13;;;29.72;25.08
37690;BME280;23527;48.150;11.610;2022-07-09T10:18:33;96620.41;;;29.92;25.34
37690;BME280;23527;48.150;11.610;2022-07-09T10:21:38;96617.75;;;30.02;24.88
37690;BME280;23527;48.150;11.610;2022-07-09T10:24:38;96616.97;;;30.07;22.53
37690;BME280;23527;48.150;11.610;2022-07-09T10:27:45;96619.06;;;29.90;22.97
37690;BME280;23527;48.150;11.610;2022-07-09T10:30:46;96618.25;;;29.89;22.37
37690;BME280;23527;48.150;11.610;2022-07-09T10:33:51;96615.56;;;29.84;23.15
37690;BME280;23527;48.150;11.610;2022-07-09T10:37:01;96626.81;;;29.71;23.69
37690;BME280;23527;48.150;11.610;2022-07-09T10:40:12;96617.41;;;29.53;24.29
37690;BME280;23527;48.150;11.610;2022-07-09T10:43:13;96623.84;;;29.52;24.92
37690;BME280;23527;48.150;11.610;2022-07-09T10:46:13;96624.91;;;29.56;24.63
37690;BME280;23527;48.150;11.610;2022-07-09T10:49:14;96623.34;;;29.65;24.21
37690;BME280;23527;48.150;11.610;2022-07-09T10:52:15;96617.16;;;29.85;24.62
37690;BME280;23527;48.150;11.610;2022-07-09T10:55:16;96619.09;;;29.95;23.39
37690;BME280;23527;48.150;11.610;2022-07-09T10:58:17;96610.19;;;29.89;23.69
37690;BME280;23527;48.150;11.610;2022-07-09T11:01:21;96616.91;;;29.76;25.12
37690;BME280;23527;48.150;11.610;2022-07-09T11:04:26;96622.25;;;29.71;24.38
37690;BME280;23527;48.150;11.610;2022-07-09T11:07:27;96608.28;;;29.64;23.53
37690;BME280;23527;48.150;11.610;2022-07-09T11:10:30;96606.69;;;29.73;22.94
37690;BME280;23527;48.150;11.610;2022-07-09T11:13:30;96609.91;;;29.86;24.70
37690;BME280;23527;48.150;11.610;2022-07-09T11:16:30;96607.25;;;29.96;24.11
37690;BME280;23527;48.150;11.610;2022-07-09T11:19:31;96603.78;;;30.00;24.25
37690;BME280;23527;48.150;11.610;2022-07-09T11:22:31;96598.41;;;30.00;23.57
37690;BME280;23527;48.150;11.610;2022-07-09T11:25:32;96600.81;;;30.02;24.53
37690;BME280;23527;48.150;11.610;2022-07-09T11:28:32;96589.78;;;29.98;23.68
37690;BME280;23527;48.150;11.610;2022-07-09T11:31:33;96586.31;;;30.03;23.52
37690;BME280;23527;48.150;11.610;2022-07-09T11:34:36;96589.53;;;30.10;24.38
37690;BME280;23527;48.150;11.610;2022-07-09T11:37:37;96585.75;;;30.16;23.81
37690;BME280;23527;48.150;11.610;2022-07-09T11:40:38;96581.75;;;30.19;23.64
37690;BME280;23527;48.150;11.610;2022-07-09T11:43:38;96584.44;;;30.19;22.68
37690;BME280;23527;48.150;11.610;2022-07-09T11:46:38;96578.50;;;30.22;23.95
37690;BME280;23527;48.150;11.610;2022-07-09T11:49:39;96574.19;;;30.36;22.28
37690;BME280;23527;48.150;11.610;2022-07-09T11:52:43;96569.06;;;30.44;24.52
37690;BME280;23527;48.150;11.610;2022-07-09T11:55:56;96559.31;;;30.69;23.80
37690;BME280;23527;48.150;11.610;2022-07-09T11:58:56;96561.16;;;30.89;24.07
37690;BME280;23527;48.150;11.610;2022-07-09T12:01:58;96553.56;;;30.91;23.83
37690;BME280;23527;48.150;11.610;2022-07-09T12:04:58;96553.09;;;30.83;21.52
37690;BME280;23527;48.150;11.610;2022-07-09T12:07:59;96549.06;;;30.81;22.10
37690;BME280;23527;48.150;11.610;2022-07-09T12:11:01;96549.03;;;30.86;23.22
37690;BME280;23527;48.150;11.610;2022-07-09T12:14:02;96546.34;;;30.86;23.37
37690;BME280;23527;48.150;11.610;2022-07-09T12:17:02;96536.94;;;30.83;21.52
37690;BME280;23527;48.150;11.610;2022-07-09T12:20:02;96536.13;;;30.78;23.26
37690;BME280;23527;48.150;11.610;2022-07-09T12:23:06;96530.94;;;30.97;23.45
37690;BME280;23527;48.150;11.610;2022-07-09T12:26:07;96534.66;;;31.06;22.45
37690;BME280;23527;48.150;11.610;2022-07-09T12:29:07;96531.44;;;31.04;23.44
37690;BME280;23527;48.150;11.610;2022-07-09T12:32:07;96519.38;;;30.96;22.33
37690;BME280;23527;48.150;11.610;2022-07-09T12:35:08;96516.97;;;30.95;22.79
37690;BME280;23527;48.150;11.610;2022-07-09T12:38:09;96515.91;;;30.91;22.04
37690;BME280;23527;48.150;11.610;2022-07-09T12:41:09;96519.19;;;30.82;23.58
37690;BME280;23527;48.150;11.610;2022-07-09T12:44:12;96511.16;;;30.72;21.71
37690;BME280;23527;48.150;11.610;2022-07-09T12:47:13;96518.72;;;30.65;21.62
37690;BME280;23527;48.150;11.610;2022-07-09T12:50:13;96508.25;;;30.59;22.30
37690;BME280;23527;48.150;11.610;2022-07-09T12:53:13;96502.34;;;30.57;24.11
37690;BME280;23527;48.150;11.610;2022-07-09T12:56:13;96502.03;;;30.63;22.80
37690;BME280;23527;48.150;11.610;2022-07-09T12:59:14;96490.41;;;30.78;22.01
37690;BME280;23527;48.150;11.610;2022-07-09T13:02:15;96490.41;;;30.78;21.72
37690;BME280;23527;48.150;11.610;2022-07-09T13:05:15;96489.25;;;30.94;23.71
37690;BME280;23527;48.150;11.610;2022-07-09T13:08:17;96479.38;;;31.29;22.58
37690;BME280;23527;48.150;11.610;2022-07-09T13:11:17;96479.88;;;31.31;21.90
37690;BME280;23527;48.150;11.610;2022-07-09T13:14:17;96472.56;;;31.75;21.26
37690;BME280;23527;48.150;11.610;2022-07-09T13:17:18;96464.69;;;32.08;19.92
37690;BME280;23527;48.150;11.610;2022-07-09T13:20:18;96464.56;;;32.47;20.42
37690;BME280;23527;48.150;11.610;2022-07-09T13:23:18;96466.38;;;32.75;19.15
37690;BME280;23527;48.150;11.610;2022-07-09T13:26:18;96461.13;;;32.84;20.35
37690;BME280;23527;48.150;11.610;2022-07-09T13:29:19;96461.16;;;32.60;19.35
37690;BME280;23527;48.150;11.610;2022-07-09T13:32:20;96462.66;;;32.47;19.71
37690;BME280;23527;48.150;11.610;2022-07-09T13:35:20;96453.97;;;32.50;20.88
37690;BME280;23527;48.150;11.610;2022-07-09T13:38:21;96446.91;;;32.36;20.00
37690;BME280;23527;48.150;11.610;2022-07-09T13:41:21;96448.97;;;32.20;21.23
37690;BME280;23527;48.150;11.610;2022-07-09T13:44:22;96454.00;;;31.98;20.98
37690;BME280;23527;48.150;11.610;2022-07-09T13:47:22;96448.78;;;31.82;22.41
37690;BME280;23527;48.150;11.610;2022-07-09T13:50:22;96450.53;;;31.68;21.17
37690;BME280;23527;48.150;11.610;2022-07-09T13:53:23;96453.72;;;31.70;21.37
37690;BME280;23527;48.150;11.610;2022-07-09T13:56:23;96444.63;;;31.66;22.71
37690;BME280;23527;48.150;11.610;2022-07-09T13:59:23;96444.28;;;31.73;22.29
37690;BME280;23527;48.150;11.610;2022-07-09T14:02:24;96435.63;;;31.76;20.61
37690;BME280;23527;48.150;11.610;2022-07-09T14:05:24;96436.75;;;31.70;22.00
37690;BME280;23527;48.150;11.610;2022-07-09T14:08:24;96421.00;;;31.53;21.48
37690;BME280;23527;48.150;11.610;2022-07-09T14:11:27;96427.03;;;31.40;22.17
37690;BME280;23527;48.150;11.610;2022-07-09T14:14:27;96423.84;;;31.33;21.78
37690;BME280;23527;48.150;11.610;2022-07-09T14:17:28;96426.03;;;31.31;21.70
37690;BME280;23527;48.150;11.610;2022-07-09T14:20:28;96415.25;;;31.31;23.29
37690;BME280;23527;48.150;11.610;2022-07-09T14:23:29;96429.59;;;31.26;22.69
37690;BME280;23527;48.150;11.610;2022-07-09T14:26:29;96417.78;;;31.51;22.58
37690;BME280;23527;48.150;11.610;2022-07-09T14:29:29;96413.84;;;31.72;22.66
37690;BME280;23527;48.150;11.610;2022-07-09T14:32:29;96416.50;;;31.77;22.72
37690;BME280;23527;48.150;11.610;2022-07-09T14:35:30;96411.22;;;31.91;21.71
37690;BME280;23527;48.150;11.610;2022-07-09T14:38:30;96414.84;;;32.05;20.87
37690;BME280;23527;48.150;11.610;2022-07-09T14:41:30;96408.00;;;31.89;22.02
37690;BME280;23527;48.150;11.610;2022-07-09T14:44:31;96410.56;;;31.75;21.94
37690;BME280;23527;48.150;11.610;2022-07-09T14:47:31;96406.91;;;31.66;22.88
37690;BME280;23527;48.150;11.610;2022-07-09T14:50:31;96412.94;;;31.53;22.64
37690;BME280;23527;48.150;11.610;2022-07-09T14:53:32;96404.47;;;31.31;21.63
37690;BME280;23527;48.150;11.610;2022-07-09T14:56:33;96411.31;;;31.18;22.73
37690;BME280;23527;48.150;11.610;2022-07-09T14:59:33;96404.13;;;31.03;23.08
37690;BME280;23527;48.150;11.610;2022-07-09T15:02:33;96413.16;;;30.83;21.82
37690;BME280;23527;48.150;11.610;2022-07-09T15:05:33;96401.59;;;30.78;23.58
37690;BME280;23527;48.150;11.610;2022-07-09T15:08:34;96403.00;;;30.70;23.04
37690;BME280;23527;48.150;11.610;2022-07-09T15:11:35;96402.28;;;30.55;23.08
37690;BME280;23527;48.150;11.610;2022-07-09T15:14:35;96406.88;;;30.54;23.18
37690;BME280;23527;48.150;11.610;2022-07-09T15:17:35;96399.31;;;30.56;23.68
37690;BME280;23527;48.150;11.610;2022-07-09T15:20:35;96391.25;;;30.56;23.01
37690;BME280;23527;48.150;11.610;2022-07-09T15:23:36;96388.28;;;30.58;22.87
37690;BME280;23527;48.150;11.610;2022-07-09T15:26:36;96382.31;;;30.66;23.62
37690;BME280;23527;48.150;11.610;2022-07-09T15:29:36;96380.97;;;30.63;22.28
37690;BME280;23527;48.150;11.610;2022-07-09T15:32:37;96382.56;;;30.69;23.94
37690;BME280;23527;48.150;11.610;2022-07-09T15:35:37;96378.00;;;30.70;23.54
37690;BME280;23527;48.150;11.610;2022-07-09T15:38:38;96376.13;;;30.65;23.27
37690;BME280;23527;48.150;11.610;2022-07-09T15:41:38;96367.03;;;30.61;23.27
37690;BME280;23527;48.150;11.610;2022-07-09T15:44:38;96361.13;;;30.59;24.18